Rank
Name
Bib
Time
Pace
Hometown
Division
Div Rank
1 Jason Kessler 204 00:14:57 04:49 Perrysburg, OH M35-39 1
2 Jonathan Dewitt 301 00:15:54 05:08 South Rockwood, MI M25-29 1
3 GEORGE MCCARTNEY 288 00:15:57 05:08 SWANTON, OH M17-19 1
4 Ken Richendollar 181 00:16:13 05:14 Toledo, OH M40-44 1
5 Bobby Borger 325 00:16:16 05:14 Perrysburg, OH M17-19 2
6 BRANDON AVERS 3 00:16:19 05:16 BOWLING GREEN, OH M17-19 3
7 JOSH LYKANS 290 00:16:36 05:21 SYLVANIA, OH M17-19 4
8 Clayton Rice 244 00:16:56 05:27 Maumee, OH M20-24 1
9 Charlie Lambrix 299 00:17:05 05:30 Perrysburg, OH M25-29 2
10 Steve Baugh 354 00:17:09 05:31 Sylvania, OH M45-49 1
11 ADAM BURNS 240 00:17:14 05:33 OREGON, OH M17-19 5
12 NICHOLAS KORDUCKI 151 00:17:19 05:35 BOWLING GREEN, OH M17-19 6
13 Tanner Schreiner 306 00:17:27 05:37 Tiffin, OH M15-16 1
14 John Kihorany 304 00:17:35 05:40 Tiffin, OH M35-39 2
15 Matthew Kuyken 370 00:17:35 05:40 Fremont, OH M15-16 2
16 John Gilbert 258 00:17:42 05:42 Powell, OH M35-39 3
17 Jacob Anderson 305 00:17:43 05:43 Tiffin, OH M15-16 3
18 ADAM FORREST 228 00:17:44 05:43 TIFFIN, OH M17-19 7
19 Sam Shekut 211 00:18:02 05:49 Perrysburg, OH M17-19 8
20 TODD GERMANA 286 00:18:14 05:52 SYLVANIA, OH M40-44 2
21 Andrew Richardson 221 00:18:15 05:53 Haskins, OH M13-14 1
22 SHANE TOBAR 168 00:18:15 05:53 WESTON, OH M15-16 4
23 Adam Lewis 178 00:18:17 05:53 Grand Rapids, OH M15-16 5
24 BRAD LIESKE 282 00:18:24 05:56 OAK HARBOR, OH M45-49 2
25 Ryan Hafner 380 00:18:31 05:58 Perrysburg, OH M35-39 4
26 MICHAEL J PORTER 271 00:18:34 05:59 TOLEDO, OH M35-39 5
27 Matthew Springer 222 00:18:40 06:01 Swartz Creek, MI M35-39 6
28 TOM SILVA 255 00:18:45 06:02 MAUMEE, OH M45-49 3
29 Sean Hoeft 196 00:18:50 06:04 Martin, OH M13-14 2
30 Ben Waggoner 334 00:18:51 06:04 Maumee, OH M50-54 1
31 NICK NIJAKOWSKI 280 00:18:52 06:05 SWANTON, OH M35-39 7
32 HAYDEN DICKERSON 239 00:18:52 06:05 CURTICE, OH M15-16 6
33 J.P Miller 373 00:18:57 06:06 TOLEDO, OH M35-39 8
34 JACOB KEILHOLZ 248 00:18:58 06:07 OREGON, OH M15-16 7
35 HALEY HESS 237 00:19:10 06:10 OREGON, OH F17-19 1
36 CHANTILLY KESSLER 46 00:19:19 06:13 PERRYSBURG, OH F30-34 1
37 ED MASTA 62 00:19:23 06:15 WYANDOTTE, MI M50-54 2
38 Josh Yeager 359 00:19:25 06:15 Toledo, OH M17-19 9
39 CHRIS VINCENT 92 00:19:25 06:15 JACKSON, MI F50-54 1
40 Nathaniel Kuhn 149 00:19:28 06:16 Toledo, OH M17-19 10
41 Roger Davenport 363 00:19:30 06:17 Toledo, OH M35-39 9
42 MAX SCHROEDER 251 00:19:30 06:17 CURTICE, OH M17-19 11
43 Jacob Gibbs 342 00:19:31 06:17 Ottawa Lake, MI M17-19 12
44 Matt Meyers 364 00:19:38 06:20 US M40-44 3
45 Ryan Farrrier 346 00:19:39 06:20 Fremont, OH M17-19 13
46 STONE ZIMMERMAN 113 00:19:42 06:21 HASKINS, OH M15-16 8
47 Morgan Dembowski 338 00:19:42 06:21 Toledo, OH F15-16 1
48 Bob Fittro 300 00:19:51 06:24 Tiffin, OH M50-54 3
49 Carrie Golden 254 00:19:52 06:24 Fremont, OH F25-29 1
50 SERGIO MILLANES 65 00:19:58 06:26 TOLEDO, OH M35-39 10
51 Andy Artiaga 368 00:20:02 06:27 Whitehouse, OH M35-39 11
52 Trinity Fowler 242 00:20:04 06:28 Northwood, OH F13-14 1
53 Jacob Duncan 110 00:20:08 06:29 Toledo, OH M15-16 9
54 Sarah Szymanowski 311 00:20:09 06:29 Fremont, OH F17-19 2
55 John Kolesar 321 00:20:10 06:30 Fremont, OH M45-49 4
56 Liz Reinhart 349 00:20:10 06:30 Toledo, OH F25-29 2
57 Brock Bunting 331 00:20:11 06:30 Fremont, OH M17-19 14
58 Justin Mendoza 64 00:20:12 06:31 Toledo, OH M13-14 3
59 BRANDON FITCH 250 00:20:15 06:31 GRAND RAPIDS, OH M30-34 1
60 Tyler Kirian 360 00:20:16 06:32 Toledo, OH M15-16 10
61 Jack Dais 362 00:20:19 06:33 Toledo, OH M45-49 5
62 Matt Thoman 330 00:20:21 06:33 Ocoee, FL M35-39 12
63 Trevor Malik 268 00:20:24 06:34 Monroe, MI M13-14 4
64 Nick Farrier 313 00:20:24 06:34 Fremont, OH M17-19 15
65 ANDREW WICKISER 261 00:20:25 06:35 BOWLING GREEN, OH M55-59 1
66 Dillon Sims 353 00:20:29 06:36 Curtice, OH M13-14 5
67 Abbigail Dorn 234 00:20:31 06:36 Toledo, OH F17-19 3
68 Christian Spore 223 00:20:32 06:37 Perrysburg, OH M17-19 16
69 Aubrey Duhaime 159 00:20:34 06:38 Perrysburg, OH F-10-12 1
70 HANNAH HESS 238 00:20:46 06:42 OREGON, OH F17-19 4
71 Noah Feudi 27 00:20:48 06:42 Toledo, OH M13-14 6
72 DAVE WALLINGFORD 283 00:20:53 06:43 BELLEVUE, OH M60-64 1
73 Morgan Cukierski 323 00:20:57 06:45 Toledo, OH F17-19 5
74 Donald Bashor 4 00:20:57 06:45 Wauseon, OH M65-69 1
75 James Bockey 277 00:21:08 06:48 Temperance, MI M40-44 4
76 Brad Bodnar 130 00:21:11 06:49 Perrysburg, OH M35-39 13
77 Cassidi Lovell 310 00:21:17 06:51 Genoa, OH F17-19 6
78 William Warnke 402 00:21:27 06:55 Perrysburg, OH M25-29 3
79 Lucas Rupke 302 00:21:33 06:57 Gibsonburg, OH M15-16 11
80 Logan Barshel 145 00:21:34 06:57 Oregon, OH M15-16 12
81 Drew Myers 365 00:21:45 07:00 US M13-14 7
82 Vince Hornik 326 00:21:54 07:03 Toledo, OH M50-54 4
83 Elizabeth Reinbrecht 336 00:21:55 07:04 Sylvania, OH F25-29 3
84 Scott Snodgrass 307 00:21:57 07:04 Fremont, OH M20-24 2
85 HENRY MCCARTNEY 289 00:22:09 07:08 SWANTON, OH M15-16 13
86 MIKE SHEEDER 166 00:22:13 07:09 OREGON, OH M45-49 6
87 Jacob Gladieux 314 00:22:15 07:10 Monroe, MI M13-14 8
88 Justin Cauls 186 00:22:16 07:10 Toledo, OH M15-16 14
89 Tom Wawrzyniak 358 00:22:21 07:12 Perrysburg, OH M40-44 5
90 Edward Carmichael 372 00:22:21 07:12 Temperance, MI M55-59 2
91 Trent Williams 194 00:22:23 07:13 Fremont, OH M17-19 17
92 John Snodgrass 309 00:22:25 07:13 Fremont, OH M45-49 7
93 Andrew Flowers 146 00:22:33 07:16 Toledo, OH M13-14 9
94 Shawn Gargac 272 00:22:37 07:17 Fort Wayne, IN M25-29 4
95 Jennie Lambert 126 00:22:39 07:18 Perrysburg, OH F45-49 1
96 Adam Skibinski 343 00:22:40 07:18 Toledo, OH M15-16 15
97 Tony Scott 83 00:22:40 07:18 Toledo, OH M35-39 14
98 Sam Kuhn 147 00:22:41 07:18 Toledo, OH Overall Male 83
99 DANIEL BRIONES 180 00:22:41 07:18 OREGON, OH M13-14 10
100 DIANNA ASHTON 256 00:22:42 07:19 LUCKEY, OH F45-49 2
Rank
Name
Bib
Time
Pace
Hometown
Division
Div Rank
101 RICH HEBAN 34 00:22:42 07:19 WHITEHOUSE, OH M50-54 5
102 William Czerniakowski 212 00:22:42 07:19 Maumee, OH M1-9 1
103 DILLON ASHTON 249 00:22:42 07:19 PEMBERVILLE, OH M40-44 6
104 Jake Stucker 161 00:22:43 07:19 Bowling Green, OH M13-14 11
105 JULIE RIFFLE 78 00:22:44 07:19 MILLBURY, OH F30-34 2
106 Kelly Gibson II 319 00:22:48 07:21 Toledo, OH M17-19 18
107 Tracy Evans 131 00:22:51 07:22 Perrysburg, OH F40-44 1
108 Alyssa Heer 122 00:22:52 07:22 Toledo, OH F13-14 2
109 CORY ARBINGER 278 00:23:01 07:25 TOLEDO, OH F25-29 4
110 TOM PICKEREL 74 00:23:03 07:25 GENOA, OH M65-69 2
111 Mark Selfe 142 00:23:06 07:27 Perrysburg, OH M55-59 3
112 MADISON MILLER 235 00:23:08 07:27 OREGON, OH F15-16 2
113 DOUG LEADER 132 00:23:15 07:29 BOWLING GREEN, OH M45-49 8
114 CAITLYN KUECHER 236 00:23:17 07:30 OREGON, OH F15-16 3
115 Robert Neeley 182 00:23:21 07:31 Oregon, OH M45-49 9
116 Carer Fittro 396 00:23:25 07:32 Tiffin, OH M-10-12 1
117 Dylan Trzcinski 114 00:23:25 07:33 Toledo, OH M13-14 12
118 Peter Areddy 386 00:23:26 07:33 Maumee, OH M45-49 10
119 Casey Lovell 329 00:23:28 07:34 Fremont, OH M20-24 3
120 Joel Semmelhack 391 00:23:28 07:34 Northbrook, IL M35-39 15
121 Kasey Kreger 53 00:23:29 07:34 Toledo, OH F-10-12 2
122 PAUL EGLI 214 00:23:31 07:35 PERRYSBURG, OH M40-44 7
123 Conner LaGrange 56 00:23:32 07:35 Clay Center, OH M-10-12 2
124 Jackson Price 369 00:23:32 07:35 Whitehouse, OH M-10-12 3
125 Patrick Suto 367 00:23:33 07:35 Clay Center, OH M40-44 8
126 Tate Williams 201 00:23:36 07:36 Fremont, OH M15-16 16
127 TIM SLAWINSKI 84 00:23:40 07:38 PERRYSBURG, OH M45-49 11
128 Kayla Mendoza 63 00:23:43 07:38 Toledo, OH F1-9 1
129 EMILY CROAK 15 00:23:46 07:39 TOLEDO, OH F25-29 5
130 Joan Mathews 226 00:23:52 07:41 Maumee, OH F55-59 1
131 TAYLOR A. NICHOLS 73 00:23:57 07:43 TOLEDO, OH F13-14 3
132 Jonathan Gagle 355 00:23:57 07:43 Perrysburg, OH M17-19 19
133 Glotzbecker Marc 61 00:24:02 07:44 Fremont, OH M40-44 9
134 Kayla Kreger 52 00:24:02 07:45 Toledo, OH F13-14 4
135 Beth Kohler 409 00:24:05 07:46 Gibsonburg, OH F50-54 2
136 Benjamin Fitzpatrick 324 00:24:06 07:46 Fremont, OH M50-54 6
137 LISA STEVENS 203 00:24:06 07:46 PERRYSBURG, OH F50-54 3
138 JACOB MIES 165 00:24:07 07:46 OREGON, OH M15-16 17
139 Brittany Mathews 267 00:24:11 07:47 Millbury, OH F15-16 4
140 KEITH NARGES 72 00:24:11 07:47 NORTHWOOD, OH M40-44 10
141 MELISSA SANFORD-MANGETTE 135 00:24:16 07:49 BOWLING GREEN, OH F30-34 3
142 DAVID CZAPOR 16 00:24:16 07:49 FRANKLIN, MI M55-59 4
143 Elly Yoder 100 00:24:21 07:51 Monclova, OH F-10-12 3
144 Jeff Yoder 99 00:24:21 07:51 Monclova, OH M45-49 12
145 HOLLY WALSH 173 00:24:25 07:52 OREGON, OH F45-49 3
146 MARY CROWN 200 00:24:31 07:54 SYLVANIA, OH F55-59 2
147 GARETH JANKOWSKI 45 00:24:36 07:55 MAUMEE, OH M40-44 11
148 Laney Conley 14 00:24:39 07:56 Toledo, OH F-10-12 4
149 JACOB MOSINIAK 285 00:24:40 07:57 CURTICE, OH M13-14 13
150 TOM KOLENA 51 00:24:40 07:57 TOLEDO, OH M55-59 5
151 Avery Cooper 202 00:24:40 07:57 Toledo, OH M50-54 7
152 Paul Czerniakowski 213 00:24:41 07:57 Maumee, OH M35-39 16
153 PATRICK MCCOY 298 00:24:44 07:58 SYLVANIA, OH M17-19 20
154 McCoy Garret 297 00:24:49 08:00 Sylvania, OH M17-19 21
155 Mark Gibbs 371 00:24:50 08:00 Ottawa Lake, MI M55-59 6
156 LEXY TAFELSKI 87 00:24:50 08:00 TOLEDO, OH F13-14 5
157 CALEB WRIGHT 97 00:24:52 08:01 TOLEDO, OH M-10-12 4
158 KATHERINE NAVEKEN 119 00:24:59 08:03 TOLEDO, OH F13-14 6
159 Tegan Wietrzykowski 115 00:25:03 08:04 Toledo, OH F-10-12 5
160 Jennifer Brown 7 00:25:11 08:07 Rossford, OH F30-34 4
161 HANNAH SMITH 85 00:25:11 08:07 TOLEDO, OH F15-16 5
162 Mindi Walton 303 00:25:13 08:07 Toledo, OH F35-39 1
163 Olivia Przeniczny 294 00:25:19 08:09 Lambertville, MI F17-19 7
164 Matt Nichols 352 00:25:24 08:11 Perrysburg, OH M30-34 2
165 RICK NIJAKOWSKI 279 00:25:25 08:11 SWANTON, OH M40-44 12
166 CORINNE HEBAN 36 00:25:29 08:13 WHITEHOUSE, OH F-10-12 6
167 MACY JANKOWSKI 42 00:25:29 08:13 MAUMEE, OH F-10-12 7
168 RACHAEL KIRKHAM 49 00:25:32 08:14 PERRYSBURG, OH F30-34 5
169 Paige Trzcinski 90 00:25:34 08:14 Toledo, OH F-10-12 8
170 Andrea Areddy 385 00:25:43 08:17 Maumee, OH F40-44 2
171 KAY HEINRICHS 129 00:25:44 08:17 TOLEDO, OH F65-69 1
172 Mindy Calgie 345 00:25:51 08:20 Maumee, OH F40-44 3
173 LAURA SEIVERTH 344 00:25:51 08:20 PERRYSBURG, OH F35-39 2
174 John Chaney 377 00:25:52 08:20 Perrysburg, OH M50-54 8
175 Jimmy Lambert 127 00:26:00 08:22 Perrysburg, OH M13-14 14
176 GREG CHRISTY 12 00:26:10 08:26 PERRYSBURG, OH M35-39 17
177 BECKIE DEMARS 19 00:26:10 08:26 PERRYSBURG, OH F35-39 3
178 Mark Davis 262 00:26:15 08:27 Perrysburg, OH M55-59 7
179 BRIAN HAYDEN 253 00:26:18 08:28 TOLEDO, OH M40-44 13
180 ANDY GLICK 231 00:26:19 08:29 TIFFIN, OH M55-59 8
181 CARSON BRUNING 8 00:26:20 08:29 MAUMEE, OH M1-9 2
182 NATALIE WILFONG 275 00:26:20 08:29 FREMONT, OH F30-34 6
183 Ben Martin 270 00:26:22 08:29 Perrysburg, OH M35-39 18
184 Paige Rohloff 121 00:26:26 08:31 Toledo, OH F13-14 7
185 Jamie Wilson 96 00:26:30 08:32 Huron, OH F30-34 7
186 RONELLE PRENZLIN 276 00:26:33 08:33 FREMONT, OH F40-44 4
187 DERIK SCHNEE 82 00:26:34 08:33 CURTICE, OH M35-39 19
188 DAWN WHITAKER 94 00:26:35 08:34 TOLEDO, OH F45-49 4
189 Antonio Feudi 26 00:26:36 08:34 Toledo, OH M35-39 20
190 Jordan Feudi 25 00:26:37 08:34 Toledo, OH F-10-12 9
191 Abigayle Johnson 265 00:26:37 08:34 Toledo, OH F15-16 6
192 TONY LUCARELLI 59 00:26:38 08:35 SWANTON, OH M60-64 2
193 Madison Curavo 148 00:26:38 08:35 Oregon, OH F13-14 8
194 Abby Byers 318 00:26:39 08:35 Waterville, OH F20-24 1
195 Jim Keilholz 351 00:26:40 08:35 Oregon, OH M45-49 13
196 Emily Zmarzly 101 00:26:40 08:35 Perrysburg, OH F30-34 8
197 Meredith Byers 316 00:26:40 08:35 Waterville, OH F25-29 6
198 DIANE CONWAY 259 00:26:41 08:36 MAUMEE, OH F40-44 5
199 Sugar Booger 216 00:26:41 08:36 Perrysburg, OH F40-44 6
200 Edward Goldberger 388 00:26:42 08:36 Maumee, OH M55-59  
Rank
Name
Bib
Time
Pace
Hometown
Division
Div Rank
201 John VanHorn 379 00:26:42 08:36 Unknown M50-54 9
202 SARAH GLINSKI 111 00:26:44 08:37 PERRYSBURG, OH F35-39 4
203 J.D. MCCOY 296 00:26:50 08:39 SYLVANIA, OH M55-59 10
204 Patricia Neeley 184 00:26:52 08:39 Oregon, OH F45-49 5
205 Jessica Ely 171 00:26:52 08:39 Toledo, OH F35-39 5
206 Karla Neeley 183 00:26:53 08:39 Oregon, OH F50-54 4
207 NATHAN RAMANATHAN 76 00:26:53 08:39 OTTAWA HILLS, OH M40-44 14
208 Alec Hillyer 315 00:26:55 08:40 Waterville, OH M20-24 4
209 RANDY KILBOURN 263 00:26:56 08:41 TOLEDO, OH M35-39 21
210 DELANEY HINAMON 260 00:27:03 08:43 TOLEDO, OH F13-14 9
211 Jennifer Ollom 274 00:27:04 08:43 Fremont, OH F40-44 7
212 FRANK CODY 13 00:27:05 08:43 MAUMEE, OH M65-69 3
213 STACY WRIGHT 98 00:27:06 08:44 TOLEDO, OH F40-44 8
214 Pat Selfe 143 00:27:07 08:44 Perrysburg, OH F55-59 3
215 IRINA ASHTON 247 00:27:08 08:44 PEMBERVILLE, OH F45-49 6
216 Jenn Stucker 160 00:27:09 08:45 Bowling Green, OH F40-44 9
217 CONNI BAIDEL 245 00:27:11 08:45 TOLEDO, OH F30-34 9
218 PJ BAIDEL 246 00:27:12 08:46 TOLEDO, OH M1-9 3
219 Tom Myers 348 00:27:14 08:46 Perrysburg, OH M50-54 10
220 John Stout 197 00:27:14 08:46 Perrysburg, OH M50-54 11
221 ALEXANDREA DERRER 153 00:27:16 08:47 OREGON, OH F15-16 7
222 TERRY KOTALIK 175 00:27:18 08:47 PERRYSBURG, OH M60-64 3
223 ALLY KOTALIK 174 00:27:18 08:48 PERRYSBURG, OH F30-34 10
224 JOHN FLAHIE 28 00:27:22 08:49 MONCLOVA, OH M65-69 4
225 Katie Byers 317 00:27:22 08:49 Waterville, OH F50-54 5
226 SPENCER JANKOWSKI 41 00:27:26 08:50 MAUMEE, OH M-10-12 5
227 Marty Wertz 190 00:27:30 08:51 Bloomville, OH M35-39 22
228 Jill Tipton 332 00:27:32 08:52 Morenci, MI F35-39 6
229 Ross Schlatter 273 00:27:33 08:52 Curtice, OH M-10-12 6
230 Sandy Zollweg 102 00:27:34 08:53 Sylvania, OH F45-49 7
231 JENNIFER BRUNING 9 00:27:42 08:55 MAUMEE, OH F35-39 7
232 Erica Przeniczny 293 00:27:44 08:56 Lambertville, MI F20-24 2
233 TERRI ZARNICK 399 00:27:55 09:00 MONCLOVA, OH F50-54 6
234 Ryan Wronkowicz 361 00:27:57 09:00 Perrysburg, OH M35-39 23
235 Courtney Konik 189 00:27:57 09:00 Sylvania, OH F30-34 11
236 Dawn Garver 220 00:27:57 09:00 Holland, OH F40-44 10
237 Austin Adams 176 00:28:04 09:02 US M17-19 22
238 GEORGE HO 38 00:28:05 09:03 OREGON, OH M60-64 4
239 MIRIAM FOWLER 241 00:28:05 09:03 NORTHWOOD, OH F1-9 2
240 TROY FOWLER 243 00:28:05 09:03 NORTHWOOD, OH M35-39 24
241 Ashley Mundrick 383 00:28:08 09:04 Perrysburg, OH F30-34 12
242 David Armstrong 328 00:28:22 09:08 Toledo, OH M35-39 25
243 Hannah Santiago 281 00:28:22 09:08 Gibsonburg, OH F17-19 8
244 DONOVAN COCHRANE 257 00:28:31 09:11 LUCKEY, OH M-10-12 7
245 Andrew Stough 404 00:28:31 09:11 Toledo, OH M40-44 15
246 KENDALL JANKOWSKI 43 00:28:35 09:12 MAUMEE, OH F1-9 3
247 RENEE SMALL 158 00:28:39 09:14 TOLEDO, OH F45-49 8
248 ELIZABETH HEBAN 35 00:28:42 09:15 WHITEHOUSE, OH F1-9 4
249 Erin Herrera 144 00:28:42 09:15 Perrysburg, OH F20-24 3
250 ROB SIMON 157 00:28:44 09:15 MAUMEE, OH M50-54 12
251 Kevin Mangette 136 00:28:44 09:15 Bowling Green, OH M30-34 3
252 KRISTI HOEFT 195 00:28:45 09:16 MARTIN, OH F40-44 11
253 Jenna Lewis 179 00:28:45 09:16 Grand Rapids, OH F13-14 10
254 JEFF ACOCKS 123 00:28:52 09:18 PERRYSBURG, OH M70-74 1
255 Samantha Janiszewski 40 00:28:55 09:19 Petersburg, MI F20-24 4
256 Gary Lupu 60 00:28:56 09:19 Petersburg, MI M20-24 5
257 Dylan Brogan 225 00:28:58 09:20 Perrysburg, OH M13-14 15
258 Elliott Carnicom 381 00:29:00 09:20 Toledo, OH M13-14 16
259 Jillian Mundo 69 00:29:02 09:21 Whitehouse, OH F13-14 11
260 Deanne Miller 374 00:29:02 09:21 TOLEDO, OH F35-39 8
261 JoVanna Harris-Johnson 287 00:29:10 09:24 Toledo, OH F25-29 7
262 DENISE DASHNER 17 00:29:11 09:24 TEMPERANCE, MI F45-49 9
263 DOMINGO VALADEZ 91 00:29:15 09:25 TEMPERANCE, MI M55-59 11
264 JENA MIES 164 00:29:17 09:26 OREGON, OH F13-14 12
265 DAVE TOBAR 167 00:29:30 09:30 WESTON, OH M40-44 16
266 GINNY LUCARELLI 58 00:29:34 09:31 SWANTON, OH F65-69 2
267 Bradley Farmer 24 00:29:35 09:32 Toledo, OH M45-49 14
268 Liz Tapyrik 133 00:29:36 09:32 Perrysburg, OH F25-29 8
269 Rebecca Loch 350 00:29:48 09:36 Maumee, OH F-10-12 10
270 Joe Loch 400 00:29:49 09:36 Maumee, OH M45-49 15
271 Ron Westfall 128 00:29:53 09:37 Perrysburg, OH M65-69 5
272 APRIL GARGAC 154 00:30:01 09:40 NORTHWOOD, OH F15-16 8
273 MOLLY TRAWEEK 89 00:30:01 09:40 TOLEDO, OH F35-39 9
274 DEVYN TRAWEEK 88 00:30:02 09:40 TOLEDO, OH F1-9 5
275 Kelly Hassall 401 00:30:03 09:41 Maumee, OH F35-39 10
276 Amanda Warnke 134 00:30:09 09:43 Perrysburg, OH F25-29 9
277 Rebecca Mehregan 356 00:30:15 09:44 Monroe, MI F50-54 7
278 CHRISTINE HEBAN 37 00:30:15 09:44 WHITEHOUSE, OH F35-39 11
279 WILLIAM GOSLINE 206 00:30:20 09:46 TOLEDO, OH M70-74 2
280 ALYSSA MOHLER 67 00:30:22 09:47 PERRYSBURG, OH F20-24 5
281 TIM MOHLER 68 00:30:23 09:47 PERRYSBURG, OH M50-54 13
282 GARY CHAPMAN 103 00:30:29 09:49 PERRYSBURG, OH M65-69 6
283 Sloan Andrzejczak 2 00:30:29 09:49 Toledo, OH F-10-12 11
284 JIM MILLS 108 00:30:36 09:51 PERRYSBURG, OH M65-69 7
285 Dee Meinen 117 00:30:38 09:52 Toledo, OH F40-44 12
286 JILL SEAVER 187 00:30:42 09:53 MONROE, MI F40-44 13
287 KELLY MILLER 66 00:30:44 09:54 PERRYSBURG, OH F40-44 14
288 Colleen Walsh 170 00:30:44 09:54 US F17-19 9
289 Tyler Gawrich 177 00:30:46 09:54 Oregon, OH M17-19 23
290 Jenny Wietrzykowski 116 00:30:47 09:55 Toledo, OH F35-39 12
291 Meghan Myers 347 00:30:51 09:56 Perrysburg, OH F20-24 6
292 JAMES R. LAGGER 269 00:30:55 09:57 PERRYSBURG, OH M75-79 1
293 Nicole Knight 50 00:30:57 09:58 Toledo, OH F35-39 13
294 LAURA LEVENTHAL 291 00:31:02 10:00 BOWLING GREEN, OH F55-59 4
295 ALISSA CARROLL 390 00:31:09 10:02 ROSSFORD, OH F15-16 9
296 TAYLER ROYAL 192 00:31:09 10:02 ROSSFORD, OH F17-19 10
297 Chaney Deb 376 00:31:26 10:08 Perrysburg, OH F40-44 15
298 Timmy Mathews 266 00:31:30 10:09 Millbury, OH M13-14 17
299 Cindy Russeau 207 00:31:32 10:09 Toledo, OH F45-49 10
300 JOHN PASKOWSKI 408 00:31:36 10:11 MILLBURT, OH M60-64 5
Rank
Name
Bib
Time
Pace
Hometown
Division
Div Rank
301 MELANIE S LAGER 188 00:31:36 10:11 TOLEDO, OH F50-54 8
302 Danelle Cowell 292 00:31:37 10:11 Lambertville, MI F30-34 13
303 EDWARD DAGIAU 185 00:31:39 10:12 BOWLING GREEN, OH M65-69 8
304 Allison Walsh 172 00:31:56 10:17 Oregon, OH F17-19 11
305 Melissa Householder 39 00:32:05 10:20 Whitehouse, OH F35-39 14
306 KATHLEEN HERMES 193 00:32:12 10:22 ROSSFORD, OH F15-16 10
307 SETH CUMMINGS 198 00:32:33 10:29 HOLLAND, OH M1-9 4
308 CHERYL STROMSKI 410 00:32:33 10:29 ANTWERP, OH F55-59 5
309 MELISSA JANKOWSKI 44 00:32:40 10:31 MAUMEE, OH F40-44 16
310 SETH RISTER 79 00:32:46 10:33 TOLEDO, OH M1-9 5
311 Mark Skeldon 389 00:32:57 10:37 Perrysburg, OH M40-44 17
312 Susan Lowry 156 00:32:57 10:37 Perrysburg, OH F55-59 6
313 Delano Reynolds 322 00:32:57 10:37 Toledo, OH M13-14 18
314 Nicole McIntire 139 00:33:04 10:39 Toledo, OH F40-44 17
315 HEATHER DERBY 219 00:33:04 10:39 OREGON, OH F45-49 11
316 CAITLIN HAAS 31 00:33:04 10:39 WALBRIDGE, OH F13-14 13
317 KELLY RISTER 80 00:33:05 10:39 TOLEDO, OH F40-44 18
318 Erin Clinton 210 00:33:09 10:41 Toledo, OH F35-39 15
319 Andrea Guerra 397 00:33:13 10:42 Toledo, OH F25-29 10
320 JEROME TOMC 109 00:33:20 10:44 TOLEDO, OH M70-74 3
321 JAMIE KINCAID 48 00:33:23 10:45 TOLEDO, OH F25-29 11
322 Brittani Martin 398 00:33:24 10:45 Toledo, OH F25-29 12
323 Gareth Jones 217 00:33:26 10:46 Perrysburg, OH M45-49 16
324 GEORGIA BURLING 10 00:33:32 10:48 OREGON, OH F35-39 16
325 Erin Salazar 224 00:33:47 10:53 Toledo, OH F35-39 17
326 JESSICA KRYGIELSKI 54 00:33:50 10:54 WATERVILLE, OH F30-34 14
327 Mary Steinhauser 340 00:33:51 10:54 La Salle, MI F70-74 1
328 Moly Pope 75 00:34:08 10:59 Toledo, OH F25-29 13
329 JAEKOB SADER 152 00:34:12 11:01 BOWLING GREEN, OH M15-16 18
330 Emma Barnhart 335 00:34:21 11:04 Grand Rapids, OH F15-16 11
331 Doug Miller 141 00:34:36 11:09 Perrysburg, OH M40-44 18
332 Tina Miller 140 00:34:36 11:09 Perrysburg, OH F35-39 18
333 Herb Hoskins 208 00:34:40 11:10 Toledo, OH M60-64 6
334 CHRISTINA WHITMORE 95 00:34:44 11:11 TOLEDO, OH F45-49 12
335 CARYN CUMMINGS 199 00:35:07 11:18 HOLLAND, OH F35-39 19
336 AATHMANATHAN MURUGANATHAN 70 00:35:11 11:20 OTTAWA HILLS, OH M1-9 6
337 Paige Hoffman 320 00:35:51 11:33 Weston, OH F17-19 12
338 Deb Rasmusson 209 00:36:05 11:37 Toledo, OH F55-59 7
339 Wendy Flemmings 118 00:36:06 11:38 Toledo, OH F35-39 20
340 Xavier Carnicom 382 00:36:16 11:41 Toledo, OH M-10-12 8
341 CATHERINE A SCHULTZ 395 00:36:36 11:47 TOLEDO, OH F-10-12 12
342 CHRIS CONROY 112 00:36:40 11:48 MAUMEE, OH M65-69 9
343 Leanna Neshkoff 403 00:36:48 11:51 Oregon, OH F50-54 9
344 Greta Briggle 295 00:36:55 11:53 Sylvania, OH F1-9 6
345 AMBER SCHNEE 81 00:37:01 11:55 CURTICE, OH F35-39 21
346 Izebella Wright 218 00:37:06 11:57 Haskins, OH F13-14 14
347 Quentian Skipper 387 00:37:11 11:58 Toledo, OH F25-29 14
348 CARL ANDERSON 1 00:37:16 12:00 MONCLOVA, OH M70-74 4
349 Lois Berkowitz 227 00:37:17 12:00 Riverview, MI F65-69 3
350 Luke Williams 105 00:37:17 12:00 Monclova, OH M13-14 19
351 Maddy Williams 104 00:37:35 12:06 Monclova, OH F-10-12 13
352 SHAI COLLIER 264 00:37:54 12:12 PERRYSBURG, OH F30-34 15
353 Cari Breidenbach 205 00:38:07 12:16 Maumee, OH F35-39 22
354 ELIZABETH EURESTE 22 00:38:08 12:17 TOLEDO, OH F35-39 23
355 Cindy Snodgrass 308 00:38:18 12:20 Fremont, OH F50-54 10
356 LILLEY DECKER 18 00:38:29 12:23 FREMONT, OH F40-44 19
357 Jen Skeldon 215 00:38:51 12:31 Perrysburg, OH F40-44 20
358 Laurie Dombi 327 00:39:06 12:35 Oregon, OH F50-54 11
359 ANNIE EURESTE-KRYDER 23 00:40:03 12:54 TOLEDO, OH F60-64 1
360 MICHELLE MOSINIAK 284 00:40:23 13:00 CURTICE, OH F45-49 13
361 MORGAN HAYDEN 252 00:40:33 13:04 TOLEDO, OH F-10-12 14
362 KATHY CARNICORN 11 00:40:45 13:07 WATERVILLE, OH F65-69 4
363 KYLE KILLIAN 150 00:41:59 13:31 TOLEDO, OH M17-19 24
364 Heather Langsdorf 138 00:42:04 13:33 Toledo, OH F40-44 21
365 Melissa Mease 366 00:42:23 13:39 Maumee, OH F40-44 22
366 Chuck Rautio 77 00:42:59 13:50 Toledo, OH M60-64 7
367 BRANDY DEMPSEY 20 00:43:02 13:51 NORTHWOOD, OH F35-39 24
368 CHRISTA HAAS 32 00:43:02 13:52 WALBRIDGE, OH F40-44 23
369 APOORVAA MURUGANATHAN 71 00:43:25 13:59 OTTAWA HILLS, OH F1-9 7
370 JANICE NAVEKEN 120 00:44:00 14:10 TOLEDO, OH F45-49 14
371 Mindy Rozelle 384 00:44:23 14:17 Perrysburg, OH F35-39 25
372 Elizabeth Winright 137 00:44:28 14:19 Bowling Green, OH F25-29 15
373 LISA SCHULTZ 125 00:44:30 14:20 CUSTAR, OH F45-49 15
374 MARGO SMITH 124 00:44:31 14:20 BOWLING GREEN, OH F55-59 8
375 Cyril Steinhauser 341 00:44:41 14:23 La Salle, MI M70-74 5
376 Trisha Jambor 412 00:44:43 14:24 Perrysburg, OH F35-39 26
377 Rich Jambor 411 00:44:43 14:24 Perrysburg, OH M35-39 26
378 Tina Pressley 312 00:45:07 14:32 Unknown F80-120 1
379 Cameron Mehregan 357 00:46:44 15:03 Monroe, MI M20-24 6
380 Joyce Dashner 378 00:47:36 15:19 Temperance, MI F65-69 5
381 Tommy Duvendack 107 00:50:45 16:21 Swanton, OH M20-24 7
382 Amy Welling 229 00:50:53 16:23 Rossford, OH F20-24 7
383 Carole Welling 230 00:50:57 16:24 Rossford, OH F60-64 2
384 K. CELESTE GRIME 30 00:52:45 16:59 WATERVILLE, OH F65-69 6
385 Tracy Marsh 233 00:53:32 17:14 Toledo, OH F50-54 12
386 Marianne Duvendack 106 00:55:02 17:43 Swanton, OH F60-64 3
387 MOLLY STRADER 162 00:55:07 17:45 PERRYSBURG, OH F35-39 27
388 MARY JANE STRADER 163 00:55:08 17:45 PERRYSBURG, OH F65-69 7
389 MILES KRYGIELSKI 55 00:58:19 18:47 WATERVILLE, OH M1-9 7
2015 Sole to Soul Kids 1K Run  
           
Place Last Name First Name Time Age Gender
1 Czerniakowski William 3:52 8 Male
2 Klapper Isaac 4:08 8 Male
3 Smambuer Robbie 4:14 9 Male
4 Bruning Carson 4:21 8 Male
5 Tilman Timmy 4:24 9 Male
6 Klapper Karson 4:26 7 Male
7 Andrzejcza Fin 4:38 6 Female
8 Nicholes Caleb 4:38 7 Male
9 Derrer Julia 4:45 9 Female
10 Baidel Liberty 4:51 9 Female
11 Price Olivia 4:52 9 Female
12 Derrer Isabella 4:53 9 Female
13 Flores Zane 4:55 8 Male
14 Spambo Katie 4:55 7 Female
15 Sommers Kai 4:58 7 Male
16 Suto Savannah 5:08 8 Female
17 Wyckoff Dustin 5:14 8 Male
18 Derrer Lucas 5:21 8 Male
19 Fowler Amelia 5:24 9 Female
20 Schlotter Reagan 5:25 8 Female
21 Czerniakowski Adam 5:32 5 Male
22 Sziverth Andrew 5:36 7 Male
23 Golden Drew 5:40 5 Male
24 Fowler Mitchel 5:47 5 Male
25 Brokamp Rylynn 5:52 5 Female
26 Skura Olivia 5:57 9 Female
27 Walz Elsa 6:00 7 Female
28 Cords Collin 6:01 5 Male
29 Suto Bobby 6:07 10 Male
30 Kaiser Samuel 6:15 6 Male
31 Martin Calvin 6:20 4 Male
32 Millanes Elliot 6:38 5 Male
33 Bruning Caitlyn 6:42 4 Female
34 Czerniakowski Zachary 6:48 3 Male
35 Seiverth Sadona 6:53 6 Female
36 Bronkowitz Lizzie 7:10 3 Female
37 Martin Trevor 8:59 3 Male